createdAt,value
2023-01-04T00:02:36.011Z,9.68
2023-01-04T00:07:33.345Z,9.81
2023-01-04T00:12:29.913Z,10.08
2023-01-04T00:17:26.450Z,10.26
2023-01-04T00:22:23.097Z,10.00
2023-01-04T00:27:20.284Z,10.03
2023-01-04T00:32:17.093Z,9.96
2023-01-04T00:37:13.832Z,9.95
2023-01-04T00:42:10.487Z,10.01
2023-01-04T00:47:07.939Z,9.97
2023-01-04T00:52:04.710Z,9.94
2023-01-04T00:57:01.441Z,9.51
2023-01-04T01:01:58.530Z,9.91
2023-01-04T01:06:56.221Z,9.82
2023-01-04T01:11:53.448Z,8.86
2023-01-04T01:16:55.869Z,8.60
2023-01-04T01:21:53.720Z,9.16
2023-01-04T01:26:51.099Z,9.20
2023-01-04T01:31:47.844Z,9.40
2023-01-04T01:36:44.665Z,9.60
2023-01-04T01:41:41.321Z,9.81
2023-01-04T01:46:43.287Z,9.57
2023-01-04T01:51:41.502Z,9.53
2023-01-04T01:56:39.512Z,9.47
2023-01-04T02:01:36.344Z,9.64
2023-01-04T02:06:35.594Z,9.50
2023-01-04T02:11:33.259Z,9.48
2023-01-04T02:16:39.874Z,9.38
2023-01-04T02:21:47.978Z,9.58
2023-01-04T02:27:05.148Z,9.72
2023-01-04T02:32:05.706Z,9.80
2023-01-04T02:37:08.250Z,9.98
2023-01-04T02:42:07.971Z,9.78
2023-01-04T02:47:06.780Z,9.77
2023-01-04T02:52:03.488Z,9.76
2023-01-04T02:57:08.746Z,9.79
2023-01-04T03:02:29.852Z,9.82
2023-01-04T03:07:31.597Z,9.95
2023-01-04T03:12:33.071Z,9.71
2023-01-04T03:17:33.812Z,9.55
2023-01-04T03:22:52.637Z,9.53
2023-01-04T03:28:08.699Z,9.53
2023-01-04T03:33:40.707Z,9.63
2023-01-04T03:38:58.271Z,9.71
2023-01-04T03:44:19.356Z,9.63
2023-01-04T03:49:20.563Z,9.65
2023-01-04T03:54:19.702Z,9.65
2023-01-04T03:59:16.386Z,9.73
2023-01-04T04:04:31.308Z,9.94
2023-01-04T04:09:28.582Z,9.84
2023-01-04T04:14:25.229Z,9.09
2023-01-04T04:19:21.813Z,9.05
2023-01-04T04:24:19.672Z,9.25
2023-01-04T04:29:17.654Z,9.43
2023-01-04T04:34:14.249Z,9.48
2023-01-04T04:39:10.827Z,9.43
2023-01-04T04:44:07.934Z,8.15
2023-01-04T04:49:05.745Z,7.60
2023-01-04T04:54:02.725Z,7.71
2023-01-04T04:58:59.424Z,8.34
2023-01-04T05:03:58.428Z,8.73
2023-01-04T05:08:55.756Z,9.04
2023-01-04T05:13:52.347Z,9.21
2023-01-04T05:18:49.016Z,9.46
2023-01-04T05:23:45.581Z,9.53
2023-01-04T05:28:45.960Z,8.45
2023-01-04T05:34:02.153Z,8.19
2023-01-04T05:38:58.740Z,8.27
2023-01-04T05:43:56.160Z,8.15
2023-01-04T05:48:52.614Z,8.15
2023-01-04T05:53:49.419Z,7.90
2023-01-04T05:58:46.404Z,8.06
2023-01-04T06:03:43.841Z,8.08
2023-01-04T06:08:40.578Z,7.77
2023-01-04T06:13:37.292Z,8.13
2023-01-04T06:18:33.783Z,8.46
2023-01-04T06:23:31.000Z,8.63
2023-01-04T06:28:29.002Z,8.57
2023-01-04T06:33:25.571Z,8.77
2023-01-04T06:38:22.323Z,8.96
2023-01-04T06:43:22.204Z,9.03
2023-01-04T06:48:18.841Z,9.27
2023-01-04T06:53:15.480Z,9.11
2023-01-04T06:58:13.428Z,9.34
2023-01-04T07:03:15.981Z,9.19
2023-01-04T07:08:17.130Z,8.28
2023-01-04T07:13:14.315Z,8.13
2023-01-04T07:18:15.417Z,8.54
2023-01-04T07:23:16.313Z,8.87
2023-01-04T07:28:36.976Z,9.07
2023-01-04T07:33:42.483Z,9.24
2023-01-04T07:38:53.423Z,9.23
2023-01-04T07:43:53.730Z,8.28
2023-01-04T07:48:57.028Z,8.65
2023-01-04T07:54:30.398Z,8.70
2023-01-04T07:59:41.087Z,8.97
2023-01-04T08:05:04.137Z,9.21
2023-01-04T08:10:02.862Z,8.80
2023-01-04T08:15:03.351Z,8.04
2023-01-04T08:20:07.649Z,8.55
2023-01-04T08:25:09.322Z,8.37
2023-01-04T08:30:09.939Z,8.28
2023-01-04T08:35:08.798Z,8.58
2023-01-04T08:40:08.195Z,8.84
2023-01-04T08:45:10.711Z,9.00
2023-01-04T08:50:23.424Z,8.91
2023-01-04T08:55:23.691Z,9.03
2023-01-04T09:00:24.924Z,9.23
2023-01-04T09:05:23.275Z,9.25
2023-01-04T09:10:23.455Z,9.38
2023-01-04T09:15:22.641Z,9.45
2023-01-04T09:20:20.746Z,9.56
2023-01-04T09:25:17.427Z,9.76
2023-01-04T09:30:14.898Z,9.88
2023-01-04T09:35:11.691Z,9.94
2023-01-04T09:40:10.835Z,9.94
2023-01-04T09:45:24.663Z,10.02
2023-01-04T09:50:24.299Z,9.90
2023-01-04T09:55:40.989Z,9.81
2023-01-04T10:00:44.057Z,9.34
2023-01-04T10:05:41.794Z,9.61
2023-01-04T10:10:48.233Z,9.94
2023-01-04T10:15:51.360Z,10.14
2023-01-04T10:21:32.760Z,10.26
2023-01-04T10:26:30.800Z,10.41
2023-01-04T10:31:39.962Z,10.32
2023-01-04T10:36:40.535Z,10.33
2023-01-04T10:41:40.419Z,10.47
2023-01-04T10:46:40.971Z,10.36
2023-01-04T10:51:41.088Z,10.26
2023-01-04T10:56:41.652Z,9.96
2023-01-04T11:01:43.526Z,9.99
2023-01-04T11:06:47.268Z,10.04
2023-01-04T11:11:46.132Z,9.88
2023-01-04T11:16:45.277Z,9.77
2023-01-04T11:21:49.493Z,9.91
2023-01-04T11:26:48.817Z,9.70
2023-01-04T11:31:54.305Z,9.57
2023-01-04T11:36:53.174Z,9.87
2023-01-04T11:42:02.915Z,9.79
2023-01-04T11:47:11.703Z,9.33
2023-01-04T11:52:29.093Z,9.32
2023-01-04T11:57:26.834Z,9.78
2023-01-04T12:02:58.690Z,9.64
2023-01-04T12:07:42.126Z,9.63
2023-01-04T12:12:39.815Z,9.61
2023-01-04T12:17:57.599Z,9.35
2023-01-04T12:22:54.153Z,9.42
2023-01-04T12:27:51.682Z,9.41
2023-01-04T12:32:48.390Z,9.48
2023-01-04T12:37:47.860Z,9.74
2023-01-04T12:43:11.339Z,9.33
2023-01-04T12:48:41.940Z,9.61
2023-01-04T12:53:51.546Z,9.20
2023-01-04T12:59:28.909Z,9.23
2023-01-04T13:04:39.710Z,9.38
2023-01-04T13:09:46.410Z,9.14
2023-01-04T13:14:48.066Z,9.18
2023-01-04T13:19:45.775Z,8.97
2023-01-04T13:24:43.580Z,9.11
2023-01-04T13:29:40.496Z,9.05
2023-01-04T13:34:38.360Z,9.19
2023-01-04T13:39:40.894Z,9.11
2023-01-04T13:45:19.702Z,9.19
2023-01-04T13:50:25.555Z,8.95
2023-01-04T13:55:26.868Z,8.94
2023-01-04T14:00:24.332Z,8.86
2023-01-04T14:05:20.948Z,9.15
2023-01-04T14:10:18.689Z,9.09
2023-01-04T14:15:20.212Z,9.13
2023-01-04T14:20:34.004Z,9.02
2023-01-04T14:25:39.941Z,8.69
2023-01-04T14:30:37.205Z,8.88
2023-01-04T14:35:34.617Z,9.08
2023-01-04T14:40:34.717Z,9.14
2023-01-04T14:45:31.308Z,8.92
2023-01-04T14:50:28.732Z,9.19
2023-01-04T14:55:25.351Z,8.97
2023-01-04T15:00:21.927Z,8.96
2023-01-04T15:05:19.478Z,9.14
2023-01-04T15:10:20.945Z,9.43
2023-01-04T15:15:18.012Z,9.16
2023-01-04T15:20:14.713Z,9.31
2023-01-04T15:25:11.664Z,9.52
2023-01-04T15:30:09.982Z,9.07
2023-01-04T15:35:06.921Z,8.78
2023-01-04T15:40:05.357Z,9.05
2023-01-04T15:45:02.341Z,8.82
2023-01-04T15:50:00.186Z,9.14
2023-01-04T15:54:58.360Z,9.08
2023-01-04T15:59:54.911Z,9.03
2023-01-04T16:04:51.566Z,9.38
2023-01-04T16:09:48.858Z,9.32
2023-01-04T16:14:45.708Z,9.27
2023-01-04T16:19:42.336Z,9.27
2023-01-04T16:25:09.930Z,9.38
2023-01-04T16:29:56.144Z,9.39
2023-01-04T16:34:55.063Z,9.55
2023-01-04T16:40:08.624Z,9.57
2023-01-04T16:45:07.140Z,9.64
2023-01-04T16:50:04.083Z,9.74
2023-01-04T16:55:00.686Z,9.90
2023-01-04T16:59:57.321Z,9.91
2023-01-04T17:04:58.915Z,9.97
2023-01-04T17:09:55.541Z,10.00
2023-01-04T17:15:14.911Z,9.99
2023-01-04T17:20:09.812Z,9.42
2023-01-04T17:25:07.026Z,9.57
2023-01-04T17:30:04.035Z,9.03
2023-01-04T17:35:00.690Z,9.26
2023-01-04T17:39:57.861Z,9.46
2023-01-04T17:44:54.554Z,9.71
2023-01-04T17:49:51.147Z,9.82
2023-01-04T17:54:47.695Z,9.79
2023-01-04T17:59:44.942Z,9.96
2023-01-04T18:04:41.530Z,10.10
2023-01-04T18:09:38.326Z,10.11
2023-01-04T18:14:34.981Z,9.89
2023-01-04T18:19:32.226Z,9.75
2023-01-04T18:24:37.902Z,9.81
2023-01-04T18:29:35.464Z,9.93
2023-01-04T18:34:32.759Z,9.93
2023-01-04T18:39:29.374Z,9.95
2023-01-04T18:44:35.829Z,10.04
2023-01-04T18:49:33.330Z,10.02
2023-01-04T18:54:34.884Z,10.04
2023-01-04T18:59:31.972Z,10.08
2023-01-04T19:04:29.190Z,10.10
2023-01-04T19:09:29.943Z,9.98
2023-01-04T19:14:26.539Z,9.96
2023-01-04T19:19:23.130Z,9.93
2023-01-04T19:24:19.727Z,9.91
2023-01-04T19:29:18.950Z,9.85
2023-01-04T19:34:18.161Z,10.02
2023-01-04T19:39:17.498Z,10.08
2023-01-04T19:44:14.277Z,10.00
2023-01-04T19:49:15.253Z,9.96
2023-01-04T19:54:12.832Z,9.98
2023-01-04T19:59:09.420Z,9.94
2023-01-04T20:04:06.038Z,9.74
2023-01-04T20:09:03.526Z,9.80
2023-01-04T20:14:09.134Z,9.17
2023-01-04T20:19:07.220Z,9.48
2023-01-04T20:24:04.813Z,9.12
2023-01-04T20:29:03.557Z,8.86
2023-01-04T20:34:01.416Z,8.57
2023-01-04T20:38:58.905Z,8.23
2023-01-04T20:43:56.143Z,8.43
2023-01-04T20:48:53.140Z,8.12
2023-01-04T20:53:50.078Z,7.98
2023-01-04T20:58:47.449Z,8.13
2023-01-04T21:03:45.053Z,8.19
2023-01-04T21:08:41.993Z,8.46
2023-01-04T21:13:38.698Z,8.73
2023-01-04T21:18:35.493Z,8.87
2023-01-04T21:23:32.754Z,8.58
2023-01-04T21:28:29.271Z,8.35
2023-01-04T21:33:25.865Z,8.27
2023-01-04T21:38:22.468Z,8.12
2023-01-04T21:43:19.628Z,7.72
2023-01-04T21:48:16.110Z,7.56
2023-01-04T21:53:12.906Z,7.48
2023-01-04T21:58:09.656Z,7.80
2023-01-04T22:03:08.131Z,7.62
2023-01-04T22:08:05.158Z,7.65
2023-01-04T22:13:01.671Z,7.66
2023-01-04T22:17:58.253Z,7.93
2023-01-04T22:22:55.416Z,7.91
2023-01-04T22:27:52.014Z,7.68
2023-01-04T22:32:48.873Z,7.51
2023-01-04T22:37:45.451Z,7.54
2023-01-04T22:42:42.723Z,7.67
2023-01-04T22:47:39.315Z,7.86
2023-01-04T22:52:35.852Z,7.68
2023-01-04T22:57:32.487Z,7.50
2023-01-04T23:02:29.734Z,7.54
2023-01-04T23:07:26.274Z,7.66
2023-01-04T23:12:22.804Z,7.84
2023-01-04T23:17:19.337Z,7.57
2023-01-04T23:22:16.615Z,7.68
2023-01-04T23:27:13.269Z,7.50
2023-01-04T23:32:09.958Z,7.44
2023-01-04T23:37:06.799Z,7.55
2023-01-04T23:42:04.142Z,7.64
2023-01-04T23:47:01.739Z,7.60
2023-01-04T23:51:58.638Z,7.38
2023-01-04T23:56:55.482Z,7.43
